< < Back
Terminal Aerodrome Forecast


Current Version              Previous Versions:   1  2  3  4  5  6  7  8  9  

Terminal Aerodrome Forecast

738
FTUS42 KGSP 311736
TAFAVL
TAF
KAVL 311736Z 3118/0118 36007KT P6SM SCT200
     FM010500 00000KT P6SM BKN150
     FM011000 19004KT P6SM OVC090
     FM011600 19009G17KT P6SM SCT020 OVC060=

Latest METAR

080
SAUS70 KWBC 311900 RRM
MTRAVL
METAR KAVL 311854Z 35006KT 10SM CLR 08/M20 A3027 RMK AO2 SLP258
T00781200


USA.gov is the U.S. government's official web portal to all federal, state and local government web resources and services.